Wylie's Hourly Summary for Thursday, April 20, 2017
Hour Temp
(f)
RH
(%)
Solar Rad.
(MJ/m2)
Rainfall
(in)
Wind
(mph)
4/20/2017 12:00 AM 71 76 0 0 8.15
4/20/2017 1:00 AM 70 81 0 0 6.98
4/20/2017 2:00 AM 70 85 0 0 7.19
4/20/2017 3:00 AM 69 87 0 0 6.79
4/20/2017 4:00 AM 68 99 0 0 7.08
4/20/2017 5:00 AM 68 94 0 0 8.53
4/20/2017 6:00 AM 68 93 0 0 7.12
4/20/2017 7:00 AM 68 92 0 0 5.58
4/20/2017 8:00 AM 69 87 0.09 0 4.39
4/20/2017 9:00 AM 69 88 0.26 0 5.06
4/20/2017 10:00 AM 70 80 0.65 0 5.67
4/20/2017 11:00 AM 72 74 0.92 0 5.44
4/20/2017 12:00 PM 74 70 1.78 0 6.14
4/20/2017 1:00 PM 76 62 2.89 0 7.28
4/20/2017 2:00 PM 79 56 3.52 0 7.81
4/20/2017 3:00 PM 80 54 3.22 0 7.42
4/20/2017 4:00 PM 81 51 2.82 0 7.66
4/20/2017 5:00 PM 82 49 2.33 0 8.08
4/20/2017 6:00 PM 82 50 1.65 0 7.5
4/20/2017 7:00 PM 80 54 0.87 0 7.68
4/20/2017 8:00 PM 79 55 0.2 0 4.84
4/20/2017 9:00 PM 77 60 0 0 4.47
4/20/2017 10:00 PM 75 67 0 0 2.66
4/20/2017 11:00 PM 73 71 0 0 3.47
Data Summary 73 72 21.20 0.00 6.37